Time;durP1;ratioP1;P1;durP2;ratioP2;P2;SDS_P1;SDS_P2;PMS_P1;PMS_P2;Temp;Humidity;BMP_temperature;BMP_pressure;BME280_temperature;BME280_humidity;BME280_pressure;Samples;Min_cycle;Max_cycle;Signal;HPM_P1;HPM_P2
2021/05/03 00:00:57;;;;;;;10.03;9.03;;;;;;;;;;3604871;39;21140;-77
2021/05/03 00:03:23;;;;;;;8.90;7.97;;;;;;;;;;3594375;39;20427;-77
2021/05/03 00:05:56;;;;;;;12.77;7.70;;;;;;;;;;3602772;39;20422;-77
2021/05/03 00:08:25;;;;;;;11.70;8.47;;;;;;;;;;3603084;39;20461;-77
2021/05/03 00:10:52;;;;;;;12.53;9.07;;;;;;;;;;3592737;39;20830;-77
2021/05/03 00:13:19;;;;;;;11.07;9.10;;;;;;;;;;3595520;39;20390;-77
2021/05/03 00:15:46;;;;;;;10.43;9.40;;;;;;;;;;3602995;39;20422;-77
2021/05/03 00:18:12;;;;;;;11.50;8.90;;;;;;;;;;3604538;39;20366;-77
2021/05/03 00:20:38;;;;;;;9.53;8.40;;;;;;;;;;3597943;39;20433;-77
2021/05/03 00:23:04;;;;;;;9.63;8.37;;;;;;;;;;3590482;39;20410;-79
2021/05/03 00:25:30;;;;;;;13.13;8.30;;;;;;;;;;3600328;39;20402;-78
2021/05/03 00:27:56;;;;;;;9.77;7.97;;;;;;;;;;3593895;39;20394;-76
2021/05/03 00:30:22;;;;;;;13.43;8.43;;;;;;;;;;3594008;39;20377;-77
2021/05/03 00:32:48;;;;;;;8.60;7.33;;;;;;;;;;3611440;39;20407;-77
2021/05/03 00:35:18;;;;;;;11.57;8.70;;;;;;;;;;3604597;39;20414;-77
2021/05/03 00:37:44;;;;;;;12.40;8.93;;;;;;;;;;3602591;39;20433;-78
2021/05/03 00:40:10;;;;;;;8.90;7.97;;;;;;;;;;3603415;39;20499;-77
2021/05/03 00:42:36;;;;;;;12.80;9.53;;;;;;;;;;3610304;39;20417;-77
2021/05/03 00:45:09;;;;;;;13.93;8.00;;;;;;;;;;3602823;39;21198;-77
2021/05/03 00:47:36;;;;;;;10.00;9.00;;;;;;;;;;3602243;39;20434;-77
2021/05/03 00:50:04;;;;;;;12.30;8.60;;;;;;;;;;3603329;39;20974;-77
2021/05/03 00:52:30;;;;;;;12.03;9.70;;;;;;;;;;3602220;39;20395;-77
2021/05/03 00:54:56;;;;;;;14.93;8.90;;;;;;;;;;3594082;39;21134;-77
2021/05/03 00:57:22;;;;;;;11.90;10.23;;;;;;;;;;3609591;39;20810;-77
2021/05/03 00:59:49;;;;;;;10.43;8.20;;;;;;;;;;3604311;39;20825;-77
2021/05/03 01:02:15;;;;;;;9.90;8.70;;;;;;;;;;3607225;39;20395;-77
2021/05/03 01:04:41;;;;;;;10.17;8.40;;;;;;;;;;3647166;22;20440;-70
2021/05/03 01:07:07;;;;;;;12.80;8.50;;;;;;;;;;3568061;39;21580;-71
2021/05/03 01:09:34;;;;;;;9.17;8.27;;;;;;;;;;3568982;39;21173;-70
2021/05/03 01:12:00;;;;;;;14.80;9.47;;;;;;;;;;3578559;39;20401;-71
2021/05/03 01:14:26;;;;;;;15.33;10.43;;;;;;;;;;3578057;39;20410;-71
2021/05/03 01:16:52;;;;;;;11.93;9.73;;;;;;;;;;3560866;39;20447;-71
2021/05/03 01:19:21;;;;;;;10.83;8.80;;;;;;;;;;3578259;39;20509;-70
2021/05/03 01:21:51;;;;;;;14.17;10.20;;;;;;;;;;3569794;39;20397;-71
2021/05/03 01:24:18;;;;;;;12.60;10.03;;;;;;;;;;3575359;39;20418;-71
2021/05/03 01:26:44;;;;;;;11.57;8.97;;;;;;;;;;3576293;39;20451;-71
2021/05/03 01:29:10;;;;;;;11.67;9.37;;;;;;;;;;3577395;39;20514;-71
2021/05/03 01:31:36;;;;;;;12.10;10.70;;;;;;;;;;3570317;40;20489;-71
2021/05/03 01:34:07;;;;;;;13.60;8.60;;;;;;;;;;3577016;39;20410;-71
2021/05/03 01:36:36;;;;;;;10.43;9.40;;;;;;;;;;3569798;39;20389;-71
2021/05/03 01:39:02;;;;;;;10.03;9.00;;;;;;;;;;3578032;39;20749;-71
2021/05/03 01:41:28;;;;;;;13.73;10.10;;;;;;;;;;3573650;39;20400;-71
2021/05/03 01:43:54;;;;;;;9.80;8.87;;;;;;;;;;3576137;39;20594;-72
2021/05/03 01:46:20;;;;;;;15.97;9.20;;;;;;;;;;3575017;39;20389;-71
2021/05/03 01:48:46;;;;;;;9.73;8.63;;;;;;;;;;3577912;39;20409;-71
2021/05/03 01:51:12;;;;;;;16.73;9.20;;;;;;;;;;3570276;39;20390;-72
2021/05/03 01:53:38;;;;;;;10.03;8.30;;;;;;;;;;3571565;39;20416;-71
2021/05/03 01:56:05;;;;;;;13.33;9.63;;;;;;;;;;3577487;39;20452;-71
2021/05/03 01:58:31;;;;;;;14.00;9.67;;;;;;;;;;3570391;39;20907;-71
2021/05/03 02:01:00;;;;;;;15.17;11.60;;;;;;;;;;3564670;39;20420;-71
2021/05/03 02:03:26;;;;;;;11.50;10.03;;;;;;;;;;3579879;39;20544;-71
2021/05/03 02:05:53;;;;;;;13.07;10.80;;;;;;;;;;3577361;39;20472;-71
2021/05/03 02:08:20;;;;;;;14.10;11.47;;;;;;;;;;3577956;39;20428;-71
2021/05/03 02:10:46;;;;;;;13.43;10.80;;;;;;;;;;3578188;39;23533;-71
2021/05/03 02:13:13;;;;;;;17.13;10.33;;;;;;;;;;3568597;39;20454;-71
2021/05/03 02:15:39;;;;;;;10.57;9.47;;;;;;;;;;3577284;39;20396;-71
2021/05/03 02:18:05;;;;;;;12.27;10.00;;;;;;;;;;3569710;40;20391;-71
2021/05/03 02:20:32;;;;;;;14.23;10.30;;;;;;;;;;3576811;39;20417;-72
2021/05/03 02:22:59;;;;;;;14.13;11.97;;;;;;;;;;3578991;39;20469;-72
2021/05/03 02:25:25;;;;;;;12.00;9.57;;;;;;;;;;3576121;39;20432;-72
2021/05/03 02:27:51;;;;;;;16.50;11.20;;;;;;;;;;3577638;39;20405;-71
2021/05/03 02:30:17;;;;;;;13.53;10.77;;;;;;;;;;3569229;39;20403;-72
2021/05/03 02:32:45;;;;;;;13.23;10.70;;;;;;;;;;3578187;39;20415;-72
2021/05/03 02:35:12;;;;;;;12.50;10.77;;;;;;;;;;3577701;39;20428;-72
2021/05/03 02:37:39;;;;;;;16.43;11.70;;;;;;;;;;3577498;39;20409;-72
2021/05/03 02:40:05;;;;;;;14.03;10.27;;;;;;;;;;3577693;39;20461;-72
2021/05/03 02:42:31;;;;;;;12.23;10.33;;;;;;;;;;3572145;39;20387;-72
2021/05/03 02:44:57;;;;;;;18.90;12.10;;;;;;;;;;3576692;39;20400;-72
2021/05/03 02:47:24;;;;;;;18.23;11.10;;;;;;;;;;3563375;39;20375;-72
2021/05/03 02:49:50;;;;;;;17.40;12.17;;;;;;;;;;3568998;39;20715;-72
2021/05/03 02:52:16;;;;;;;17.83;10.40;;;;;;;;;;3578107;39;20387;-72
2021/05/03 02:54:42;;;;;;;16.23;10.27;;;;;;;;;;3577636;39;20403;-72
2021/05/03 02:57:08;;;;;;;12.17;10.40;;;;;;;;;;3562540;40;20379;-72
2021/05/03 02:59:34;;;;;;;13.13;10.60;;;;;;;;;;3578652;39;20436;-71
2021/05/03 03:02:00;;;;;;;14.93;11.53;;;;;;;;;;3577229;39;20976;-71
2021/05/03 03:04:26;;;;;;;15.93;11.40;;;;;;;;;;3576993;39;20399;-72
2021/05/03 03:06:52;;;;;;;13.20;10.50;;;;;;;;;;3572159;39;20416;-71
2021/05/03 03:09:19;;;;;;;13.30;10.87;;;;;;;;;;3577938;39;20832;-71
2021/05/03 03:11:47;;;;;;;12.17;10.53;;;;;;;;;;3577727;39;20569;-71
2021/05/03 03:14:13;;;;;;;15.03;11.03;;;;;;;;;;3569423;39;20502;-71
2021/05/03 03:16:40;;;;;;;16.53;10.77;;;;;;;;;;3577393;39;20462;-71
2021/05/03 03:19:06;;;;;;;14.50;10.73;;;;;;;;;;3561741;39;20767;-71
2021/05/03 03:21:32;;;;;;;13.83;11.07;;;;;;;;;;3577821;39;20443;-71
2021/05/03 03:23:58;;;;;;;19.77;9.77;;;;;;;;;;3568936;39;20413;-72
2021/05/03 03:26:25;;;;;;;12.87;11.37;;;;;;;;;;3576697;39;20386;-71
2021/05/03 03:28:51;;;;;;;11.77;10.50;;;;;;;;;;3577499;39;20473;-71
2021/05/03 03:31:17;;;;;;;12.13;10.10;;;;;;;;;;3577195;39;20387;-71
2021/05/03 03:33:43;;;;;;;13.87;11.90;;;;;;;;;;3577018;39;20429;-71
2021/05/03 03:36:10;;;;;;;18.10;12.97;;;;;;;;;;3571756;40;20432;-71
2021/05/03 03:38:36;;;;;;;14.13;11.50;;;;;;;;;;3575490;39;20464;-71
2021/05/03 03:41:02;;;;;;;16.20;13.07;;;;;;;;;;3578247;39;20416;-71
2021/05/03 03:43:28;;;;;;;19.97;12.47;;;;;;;;;;3577074;39;20389;-71
2021/05/03 03:45:55;;;;;;;16.87;13.07;;;;;;;;;;3569387;39;20659;-71
2021/05/03 03:48:21;;;;;;;21.33;12.47;;;;;;;;;;3568870;39;20585;-71
2021/05/03 03:50:47;;;;;;;18.07;14.20;;;;;;;;;;3577982;39;20383;-71
2021/05/03 03:53:13;;;;;;;18.13;13.60;;;;;;;;;;3571234;39;20393;-71
2021/05/03 03:55:40;;;;;;;21.10;15.37;;;;;;;;;;3576447;39;20450;-71
2021/05/03 03:58:06;;;;;;;16.93;12.30;;;;;;;;;;3577194;39;20398;-70
2021/05/03 04:00:32;;;;;;;12.63;11.30;;;;;;;;;;3568391;39;20444;-72
2021/05/03 04:03:00;;;;;;;17.13;12.60;;;;;;;;;;3576736;39;20514;-71
2021/05/03 04:06:04;;;;;;;15.03;12.47;;;;;;;;;;3576571;39;20728;-71
2021/05/03 04:08:27;;;;;;;13.47;12.00;;;;;;;;;;3568793;39;20395;-71
2021/05/03 04:11:16;;;;;;;19.97;14.07;;;;;;;;;;3576148;39;20701;-71
2021/05/03 04:24:55;;;;;;;18.07;12.73;;;;;;;;;;3567177;40;20404;-72
2021/05/03 04:27:21;;;;;;;18.33;12.60;;;;;;;;;;3578226;39;20462;-72
2021/05/03 04:29:47;;;;;;;16.80;13.10;;;;;;;;;;3576223;39;20773;-72
2021/05/03 04:32:14;;;;;;;22.60;14.57;;;;;;;;;;3575211;39;20756;-72
2021/05/03 04:34:40;;;;;;;19.80;13.50;;;;;;;;;;3574825;39;20427;-73
2021/05/03 04:37:06;;;;;;;19.00;14.70;;;;;;;;;;3568643;39;20400;-72
2021/05/03 04:39:32;;;;;;;19.23;15.13;;;;;;;;;;3569497;39;20544;-72
2021/05/03 04:41:58;;;;;;;16.70;12.80;;;;;;;;;;3566876;39;20445;-72
2021/05/03 04:44:24;;;;;;;18.83;13.83;;;;;;;;;;3567111;39;20395;-72
2021/05/03 04:46:50;;;;;;;16.70;14.17;;;;;;;;;;3575191;39;20417;-72
2021/05/03 04:49:16;;;;;;;22.60;13.80;;;;;;;;;;3575914;39;20392;-73
2021/05/03 04:51:42;;;;;;;17.53;13.37;;;;;;;;;;3568292;39;20382;-71
2021/05/03 04:54:08;;;;;;;16.97;13.63;;;;;;;;;;3559102;39;20677;-72
2021/05/03 04:56:34;;;;;;;17.50;12.47;;;;;;;;;;3575768;39;20401;-71
2021/05/03 04:59:00;;;;;;;15.77;11.43;;;;;;;;;;3570617;39;20421;-71
2021/05/03 05:01:26;;;;;;;14.30;10.70;;;;;;;;;;3569499;40;20403;-71
2021/05/03 05:03:52;;;;;;;16.47;13.47;;;;;;;;;;3574231;39;20443;-71
2021/05/03 05:06:18;;;;;;;36.33;13.57;;;;;;;;;;3557406;39;20765;-71
2021/05/03 05:08:44;;;;;;;18.07;12.93;;;;;;;;;;3576360;39;22370;-72
2021/05/03 05:11:10;;;;;;;17.80;11.97;;;;;;;;;;3565466;39;20399;-71
2021/05/03 05:13:36;;;;;;;17.10;10.83;;;;;;;;;;3577128;39;20471;-71
2021/05/03 05:16:02;;;;;;;17.03;13.50;;;;;;;;;;3576590;39;20439;-71
2021/05/03 05:18:28;;;;;;;15.00;12.43;;;;;;;;;;3576409;39;20391;-73
2021/05/03 05:20:54;;;;;;;15.80;13.40;;;;;;;;;;3576942;39;21563;-73
2021/05/03 05:23:22;;;;;;;16.33;12.80;;;;;;;;;;3574002;39;20441;-72
2021/05/03 05:25:48;;;;;;;16.97;12.10;;;;;;;;;;3575045;39;20471;-72
2021/05/03 05:28:14;;;;;;;14.77;12.80;;;;;;;;;;3573592;40;20417;-72
2021/05/03 05:30:40;;;;;;;21.23;13.70;;;;;;;;;;3577798;40;20431;-71
2021/05/03 05:33:06;;;;;;;16.30;12.20;;;;;;;;;;3574179;39;20360;-71
2021/05/03 05:35:32;;;;;;;14.87;11.80;;;;;;;;;;3579975;40;20379;-72
2021/05/03 05:37:58;;;;;;;14.27;12.37;;;;;;;;;;3579613;40;20400;-72
2021/05/03 05:40:24;;;;;;;13.07;11.57;;;;;;;;;;3579539;40;20459;-71
2021/05/03 05:42:50;;;;;;;15.93;10.33;;;;;;;;;;3580706;40;20477;-72
2021/05/03 05:45:16;;;;;;;19.00;12.03;;;;;;;;;;3579360;39;20725;-71
2021/05/03 05:47:42;;;;;;;14.87;11.10;;;;;;;;;;3569445;39;20456;-71
2021/05/03 05:50:08;;;;;;;12.13;10.30;;;;;;;;;;3569891;39;20390;-71
2021/05/03 05:52:35;;;;;;;14.93;12.03;;;;;;;;;;3568330;40;21437;-71
2021/05/03 05:55:01;;;;;;;16.37;10.57;;;;;;;;;;3568820;39;20440;-71
2021/05/03 05:57:27;;;;;;;14.00;10.67;;;;;;;;;;3573776;40;20424;-71
2021/05/03 05:59:53;;;;;;;12.13;9.70;;;;;;;;;;3572266;40;20796;-72
2021/05/03 06:02:19;;;;;;;11.70;10.50;;;;;;;;;;3559388;40;20786;-71
2021/05/03 06:04:45;;;;;;;14.30;10.73;;;;;;;;;;3578263;39;20395;-72
2021/05/03 06:07:11;;;;;;;14.27;10.03;;;;;;;;;;3579498;39;20423;-71
2021/05/03 06:09:37;;;;;;;15.30;10.10;;;;;;;;;;3579272;39;20383;-71
2021/05/03 06:12:03;;;;;;;10.00;8.90;;;;;;;;;;3570841;40;20683;-72
2021/05/03 06:14:29;;;;;;;11.17;9.00;;;;;;;;;;3580207;40;21132;-71
2021/05/03 06:16:55;;;;;;;10.77;9.13;;;;;;;;;;3576395;39;20410;-72
2021/05/03 06:19:21;;;;;;;11.87;9.43;;;;;;;;;;3571624;40;20416;-71
2021/05/03 06:21:47;;;;;;;12.50;9.80;;;;;;;;;;3578288;39;20425;-71
2021/05/03 06:24:13;;;;;;;10.63;7.70;;;;;;;;;;3571777;39;22426;-71
2021/05/03 06:26:39;;;;;;;10.53;8.83;;;;;;;;;;3578516;40;20384;-71
2021/05/03 06:29:05;;;;;;;9.20;8.30;;;;;;;;;;3568252;40;20510;-72
2021/05/03 06:31:32;;;;;;;9.70;7.47;;;;;;;;;;3578807;39;20795;-72
2021/05/03 06:33:58;;;;;;;13.73;8.00;;;;;;;;;;3578367;39;20427;-72
2021/05/03 06:36:24;;;;;;;11.77;7.90;;;;;;;;;;3578470;39;20373;-72
2021/05/03 06:38:50;;;;;;;10.03;8.50;;;;;;;;;;3572785;40;20432;-72
2021/05/03 06:41:16;;;;;;;11.33;7.83;;;;;;;;;;3577039;39;20767;-72
2021/05/03 06:43:42;;;;;;;8.07;7.27;;;;;;;;;;3570490;40;20412;-72
2021/05/03 06:46:08;;;;;;;8.97;7.53;;;;;;;;;;3564911;40;20430;-72
2021/05/03 06:48:35;;;;;;;9.20;7.57;;;;;;;;;;3568513;39;20398;-72
2021/05/03 06:51:01;;;;;;;9.03;7.73;;;;;;;;;;3567259;40;20462;-72
2021/05/03 06:53:27;;;;;;;6.57;5.97;;;;;;;;;;3571620;40;20412;-72
2021/05/03 06:55:53;;;;;;;17.03;9.37;;;;;;;;;;3579162;39;20809;-72
2021/05/03 06:58:19;;;;;;;12.20;6.30;;;;;;;;;;3573108;40;20537;-72
2021/05/03 07:00:45;;;;;;;7.50;5.30;;;;;;;;;;3571255;40;20558;-71
2021/05/03 07:03:12;;;;;;;7.93;6.83;;;;;;;;;;3581601;39;20523;-72
2021/05/03 07:05:38;;;;;;;6.53;5.90;;;;;;;;;;3548871;40;20453;-72
2021/05/03 07:08:05;;;;;;;7.57;6.87;;;;;;;;;;3569262;40;20466;-72
2021/05/03 07:10:31;;;;;;;10.43;6.03;;;;;;;;;;3552608;40;20425;-71
2021/05/03 07:12:57;;;;;;;6.77;6.17;;;;;;;;;;3560684;40;20409;-71
2021/05/03 07:15:23;;;;;;;9.73;6.50;;;;;;;;;;3568241;40;20484;-71
2021/05/03 07:17:50;;;;;;;7.23;6.60;;;;;;;;;;3571361;40;20461;-72
2021/05/03 07:20:16;;;;;;;10.17;7.37;;;;;;;;;;3569786;40;20398;-71
2021/05/03 07:22:42;;;;;;;8.90;7.50;;;;;;;;;;3570124;40;20761;-71
2021/05/03 07:25:10;;;;;;;8.97;7.13;;;;;;;;;;3561033;40;21085;-71
2021/05/03 07:27:37;;;;;;;10.77;7.30;;;;;;;;;;3570253;40;20482;-71
2021/05/03 07:30:04;;;;;;;9.60;7.20;;;;;;;;;;3568010;40;20412;-71
2021/05/03 07:32:30;;;;;;;7.87;7.07;;;;;;;;;;3567022;40;20422;-71
2021/05/03 07:34:56;;;;;;;8.67;7.70;;;;;;;;;;3560850;40;20368;-71
2021/05/03 07:37:22;;;;;;;7.93;7.13;;;;;;;;;;3570745;40;20388;-71
2021/05/03 07:39:48;;;;;;;8.27;7.23;;;;;;;;;;3569348;40;20376;-71
2021/05/03 07:42:14;;;;;;;8.00;7.30;;;;;;;;;;3559310;40;20406;-71
2021/05/03 07:44:40;;;;;;;10.43;7.73;;;;;;;;;;3556063;40;20891;-71
2021/05/03 07:47:06;;;;;;;12.00;7.80;;;;;;;;;;3558373;40;21030;-72
2021/05/03 07:49:33;;;;;;;8.60;7.90;;;;;;;;;;3553082;40;20517;-71
2021/05/03 07:51:59;;;;;;;8.00;7.20;;;;;;;;;;3560166;40;20426;-71
2021/05/03 07:54:25;;;;;;;9.40;7.50;;;;;;;;;;3568653;40;20401;-72
2021/05/03 07:56:51;;;;;;;9.47;7.30;;;;;;;;;;3560436;40;20838;-73
2021/05/03 07:59:17;;;;;;;8.23;7.47;;;;;;;;;;3560164;40;20481;-71
2021/05/03 08:01:43;;;;;;;7.67;7.07;;;;;;;;;;3567692;40;20476;-72
2021/05/03 08:04:09;;;;;;;7.47;6.50;;;;;;;;;;3557003;40;20845;-72
2021/05/03 08:06:35;;;;;;;6.60;6.00;;;;;;;;;;3579359;39;20487;-72
2021/05/03 08:09:05;;;;;;;8.20;7.47;;;;;;;;;;3569030;39;20864;-72
2021/05/03 08:11:32;;;;;;;6.00;5.50;;;;;;;;;;3580998;39;21881;-71
2021/05/03 08:13:58;;;;;;;6.77;6.27;;;;;;;;;;3575583;40;20443;-71
2021/05/03 08:16:26;;;;;;;7.63;7.03;;;;;;;;;;3576092;39;20859;-71
2021/05/03 08:18:52;;;;;;;7.17;6.53;;;;;;;;;;3576976;39;20689;-71
2021/05/03 08:21:18;;;;;;;7.17;6.57;;;;;;;;;;3569908;40;20405;-71
2021/05/03 08:23:44;;;;;;;6.33;5.83;;;;;;;;;;3570434;40;20491;-71
2021/05/03 08:26:10;;;;;;;10.33;5.67;;;;;;;;;;3570597;39;21016;-71
2021/05/03 08:28:39;;;;;;;7.40;6.70;;;;;;;;;;3578283;40;20397;-71
2021/05/03 08:31:05;;;;;;;8.47;5.97;;;;;;;;;;3574440;39;20397;-72
2021/05/03 08:33:31;;;;;;;6.37;5.87;;;;;;;;;;3579525;39;20452;-72
2021/05/03 08:35:57;;;;;;;7.50;6.87;;;;;;;;;;3571431;39;20462;-72
2021/05/03 08:38:24;;;;;;;6.73;6.20;;;;;;;;;;3579344;39;20496;-72
2021/05/03 08:40:50;;;;;;;7.90;7.10;;;;;;;;;;3568790;40;20407;-72
2021/05/03 08:43:16;;;;;;;7.10;6.40;;;;;;;;;;3570053;39;20435;-72
2021/05/03 08:45:43;;;;;;;8.17;7.40;;;;;;;;;;3580236;39;20411;-71
2021/05/03 08:53:39;;;;;;;6.67;6.03;;;;;;;;;;3579268;40;20409;-71
2021/05/03 08:56:05;;;;;;;8.33;7.53;;;;;;;;;;3575931;40;20394;-70
2021/05/03 08:58:31;;;;;;;10.03;7.93;;;;;;;;;;3578674;39;20404;-70
2021/05/03 09:00:57;;;;;;;7.97;7.17;;;;;;;;;;3577378;40;20412;-71
2021/05/03 09:03:24;;;;;;;7.73;7.03;;;;;;;;;;3573141;40;20626;-71
2021/05/03 09:05:50;;;;;;;8.90;7.53;;;;;;;;;;3570109;40;20597;-71
2021/05/03 09:08:25;;;;;;;9.03;8.23;;;;;;;;;;3578825;40;20400;-71
2021/05/03 09:10:52;;;;;;;8.63;7.70;;;;;;;;;;3571512;40;20444;-70
2021/05/03 09:13:25;;;;;;;9.93;8.70;;;;;;;;;;3578933;40;20421;-71
2021/05/03 09:15:52;;;;;;;9.90;7.60;;;;;;;;;;3579877;39;20788;-71
2021/05/03 09:18:18;;;;;;;8.03;7.43;;;;;;;;;;3580581;39;20839;-71
2021/05/03 09:20:44;;;;;;;8.83;7.70;;;;;;;;;;3563995;40;20416;-71
2021/05/03 09:25:39;;;;;;;9.00;8.10;;;;;;;;;;3570533;40;20491;-71
2021/05/03 09:28:19;;;;;;;8.53;7.83;;;;;;;;;;3572803;40;20831;-72
2021/05/03 09:30:47;;;;;;;8.33;7.73;;;;;;;;;;3574109;39;20411;-71
2021/05/03 09:33:13;;;;;;;10.90;8.10;;;;;;;;;;3581184;39;20537;-72
2021/05/03 09:35:58;;;;;;;7.87;7.27;;;;;;;;;;3580577;40;20387;-72
2021/05/03 09:38:39;;;;;;;9.17;7.50;;;;;;;;;;3573980;40;20517;-72
2021/05/03 09:41:25;;;;;;;9.90;6.63;;;;;;;;;;3575297;39;20403;-71
2021/05/03 09:43:51;;;;;;;8.30;6.37;;;;;;;;;;3581198;39;21135;-71
2021/05/03 09:46:31;;;;;;;8.30;6.67;;;;;;;;;;3581201;39;20492;-72
2021/05/03 09:48:58;;;;;;;8.37;6.67;;;;;;;;;;3579678;39;20393;-72
2021/05/03 09:51:30;;;;;;;7.20;6.50;;;;;;;;;;3579492;40;20683;-72
2021/05/03 09:54:31;;;;;;;6.50;5.90;;;;;;;;;;3564106;39;20521;-71
2021/05/03 09:56:59;;;;;;;6.80;6.20;;;;;;;;;;3579698;39;20433;-71
2021/05/03 09:59:34;;;;;;;7.77;7.13;;;;;;;;;;3582466;39;20396;-71
2021/05/03 10:02:09;;;;;;;8.77;7.63;;;;;;;;;;3575164;40;20729;-71
2021/05/03 10:04:36;;;;;;;18.37;7.17;;;;;;;;;;3571430;40;20527;-71
2021/05/03 10:07:03;;;;;;;9.30;8.40;;;;;;;;;;3568395;40;20491;-71
2021/05/03 10:09:31;;;;;;;13.23;8.90;;;;;;;;;;3564361;40;20433;-71
2021/05/03 10:11:57;;;;;;;7.80;5.40;;;;;;;;;;3562257;40;20413;-71
2021/05/03 10:14:24;;;;;;;6.70;6.10;;;;;;;;;;3571247;40;20460;-73
2021/05/03 10:16:50;;;;;;;6.60;6.00;;;;;;;;;;3569875;40;20519;-71
2021/05/03 10:19:19;;;;;;;16.93;7.70;;;;;;;;;;3559966;40;20406;-71
2021/05/03 10:21:45;;;;;;;10.33;8.30;;;;;;;;;;3570922;40;20431;-71
2021/05/03 10:24:15;;;;;;;9.20;6.83;;;;;;;;;;3561497;40;20715;-71
2021/05/03 10:26:42;;;;;;;8.73;6.80;;;;;;;;;;3562516;40;20404;-71
2021/05/03 10:29:08;;;;;;;8.70;7.90;;;;;;;;;;3570215;40;20419;-71
2021/05/03 10:31:56;;;;;;;8.37;7.57;;;;;;;;;;3569692;40;20405;-71
2021/05/03 10:34:40;;;;;;;11.10;6.07;;;;;;;;;;3567826;40;20510;-71
2021/05/03 10:37:25;;;;;;;8.13;6.90;;;;;;;;;;3570973;40;20433;-71
2021/05/03 10:39:51;;;;;;;13.97;9.50;;;;;;;;;;3561246;40;20383;-71
2021/05/03 10:42:17;;;;;;;7.10;6.40;;;;;;;;;;3571566;40;20951;-71
2021/05/03 10:45:02;;;;;;;6.93;6.43;;;;;;;;;;3571716;40;20429;-72
2021/05/03 10:47:34;;;;;;;10.20;9.20;;;;;;;;;;3570681;40;20416;-71
2021/05/03 10:50:00;;;;;;;7.47;6.77;;;;;;;;;;3557566;40;20406;-71
2021/05/03 10:52:37;;;;;;;7.07;6.37;;;;;;;;;;3570463;40;20409;-71
2021/05/03 10:55:04;;;;;;;9.67;7.60;;;;;;;;;;3554189;40;20818;-71
2021/05/03 10:57:32;;;;;;;7.17;6.53;;;;;;;;;;3562624;40;20425;-71
2021/05/03 10:59:59;;;;;;;10.60;7.90;;;;;;;;;;3570516;40;20453;-72
2021/05/03 11:02:26;;;;;;;8.97;8.17;;;;;;;;;;3570124;40;20420;-72
2021/05/03 11:05:22;;;;;;;8.77;7.90;;;;;;;;;;3571154;39;20407;-72
2021/05/03 11:08:04;;;;;;;7.93;7.23;;;;;;;;;;3571253;39;20477;-71
2021/05/03 11:10:49;;;;;;;9.17;8.23;;;;;;;;;;3570642;40;20860;-71
2021/05/03 11:13:33;;;;;;;8.97;7.00;;;;;;;;;;3574629;39;20418;-72
2021/05/03 11:16:19;;;;;;;8.10;7.30;;;;;;;;;;3578548;39;20440;-71
2021/05/03 11:18:45;;;;;;;7.50;6.90;;;;;;;;;;3581641;39;20423;-71
2021/05/03 11:21:15;;;;;;;8.03;7.33;;;;;;;;;;3572552;40;20754;-72
2021/05/03 11:23:41;;;;;;;7.67;7.00;;;;;;;;;;3579057;39;20401;-72
2021/05/03 11:26:30;;;;;;;6.80;6.20;;;;;;;;;;3579663;39;20412;-71
2021/05/03 11:29:13;;;;;;;7.70;6.10;;;;;;;;;;3578967;39;20698;-71
2021/05/03 11:31:39;;;;;;;6.77;6.13;;;;;;;;;;3577943;39;20812;-72
2021/05/03 11:34:16;;;;;;;7.13;6.27;;;;;;;;;;3578015;40;20428;-71
2021/05/03 11:36:49;;;;;;;5.43;4.90;;;;;;;;;;3562558;40;20813;-71
2021/05/03 11:39:29;;;;;;;7.00;6.30;;;;;;;;;;3580966;39;20423;-70
2021/05/03 11:42:33;;;;;;;6.67;6.10;;;;;;;;;;3566899;40;20413;-71
2021/05/03 11:45:00;;;;;;;7.30;6.53;;;;;;;;;;3568885;39;20438;-71
2021/05/03 11:47:30;;;;;;;8.43;7.47;;;;;;;;;;3579929;39;20814;-71
2021/05/03 11:49:56;;;;;;;8.43;7.60;;;;;;;;;;3576656;39;20445;-71
2021/05/03 11:52:32;;;;;;;9.43;7.50;;;;;;;;;;3578969;39;20440;-72
2021/05/03 11:55:25;;;;;;;7.73;7.00;;;;;;;;;;3569893;40;20400;-72
2021/05/03 11:57:52;;;;;;;8.00;7.20;;;;;;;;;;3568451;40;20404;-72
2021/05/03 12:00:18;;;;;;;7.77;7.17;;;;;;;;;;3580167;39;20828;-72
2021/05/03 12:02:45;;;;;;;8.13;7.10;;;;;;;;;;3580183;39;20748;-71
2021/05/03 12:05:17;;;;;;;7.23;6.63;;;;;;;;;;3579542;39;20658;-72
2021/05/03 12:07:44;;;;;;;7.57;6.87;;;;;;;;;;3572867;40;20886;-72
2021/05/03 12:10:15;;;;;;;8.10;7.30;;;;;;;;;;3571612;40;20497;-72
2021/05/03 12:12:47;;;;;;;7.67;6.57;;;;;;;;;;3570346;40;20400;-72
2021/05/03 12:15:17;;;;;;;10.03;9.13;;;;;;;;;;3571736;39;20417;-72
2021/05/03 12:17:44;;;;;;;8.47;7.67;;;;;;;;;;3579530;39;20417;-72
2021/05/03 12:20:17;;;;;;;9.23;8.10;;;;;;;;;;3580952;40;20424;-72
2021/05/03 12:22:52;;;;;;;8.37;7.67;;;;;;;;;;3580508;39;20835;-72
2021/05/03 12:25:18;;;;;;;8.50;7.80;;;;;;;;;;3575013;39;20428;-72
2021/05/03 12:27:44;;;;;;;8.83;7.93;;;;;;;;;;3571678;40;20923;-72
2021/05/03 12:30:11;;;;;;;10.20;7.30;;;;;;;;;;3572421;39;20420;-71
2021/05/03 12:32:38;;;;;;;9.67;8.73;;;;;;;;;;3579091;39;20435;-72
2021/05/03 12:35:06;;;;;;;11.23;8.77;;;;;;;;;;3570954;40;20857;-72
2021/05/03 12:37:32;;;;;;;9.27;8.47;;;;;;;;;;3573642;40;20432;-71
2021/05/03 12:39:58;;;;;;;8.80;8.00;;;;;;;;;;3578642;39;20440;-71
2021/05/03 12:42:30;;;;;;;10.00;9.10;;;;;;;;;;3576170;40;20392;-71
2021/05/03 12:44:56;;;;;;;9.07;8.20;;;;;;;;;;3566262;40;20405;-72
2021/05/03 12:47:51;;;;;;;8.33;7.63;;;;;;;;;;3579971;40;20408;-72
2021/05/03 12:50:25;;;;;;;7.90;7.20;;;;;;;;;;3580638;39;20531;-71
2021/05/03 12:53:17;;;;;;;9.77;8.87;;;;;;;;;;3575038;39;20415;-71
2021/05/03 12:58:49;;;;;;;9.27;8.30;;;;;;;;;;3575670;39;20417;-72
2021/05/03 13:04:19;;;;;;;7.60;6.90;;;;;;;;;;3578766;39;20429;-72
2021/05/03 13:28:59;;;;;;;10.93;8.60;;;;;;;;;;3576910;39;20400;-71
2021/05/03 13:31:25;;;;;;;7.97;7.23;;;;;;;;;;3580191;39;20754;-71
2021/05/03 13:33:51;;;;;;;9.10;8.20;;;;;;;;;;3573119;40;20461;-71
2021/05/03 13:36:17;;;;;;;10.17;8.73;;;;;;;;;;3577609;39;20377;-71
2021/05/03 13:38:44;;;;;;;11.40;8.37;;;;;;;;;;3564429;40;20598;-71
2021/05/03 13:41:10;;;;;;;9.73;8.73;;;;;;;;;;3579694;40;20809;-72
2021/05/03 13:43:36;;;;;;;11.03;8.93;;;;;;;;;;3572922;40;20709;-71
2021/05/03 13:46:02;;;;;;;9.90;8.03;;;;;;;;;;3566609;39;20795;-72
2021/05/03 13:48:28;;;;;;;8.20;7.47;;;;;;;;;;3572972;40;20574;-71
2021/05/03 13:50:54;;;;;;;9.57;8.70;;;;;;;;;;3577845;40;20707;-71
2021/05/03 13:53:21;;;;;;;10.50;9.50;;;;;;;;;;3570760;40;20554;-71
2021/05/03 13:55:47;;;;;;;8.27;7.40;;;;;;;;;;3563412;39;20461;-71
2021/05/03 13:58:13;;;;;;;8.87;8.07;;;;;;;;;;3579293;40;20412;-71
2021/05/03 14:00:39;;;;;;;11.00;8.20;;;;;;;;;;3579223;40;20413;-71
2021/05/03 14:03:05;;;;;;;12.43;8.53;;;;;;;;;;3575076;40;20408;-71
2021/05/03 14:05:31;;;;;;;11.17;8.47;;;;;;;;;;3575036;39;20472;-71
2021/05/03 14:07:57;;;;;;;7.43;6.50;;;;;;;;;;3587416;39;20908;-71
2021/05/03 14:10:23;;;;;;;7.23;6.53;;;;;;;;;;3586279;39;21048;-71
2021/05/03 14:12:49;;;;;;;7.30;6.60;;;;;;;;;;3581529;39;20805;-71
2021/05/03 14:15:21;;;;;;;8.03;7.27;;;;;;;;;;3571648;39;20497;-71
2021/05/03 14:17:48;;;;;;;8.40;7.70;;;;;;;;;;3576239;39;20807;-71
2021/05/03 14:20:14;;;;;;;8.03;7.27;;;;;;;;;;3576250;39;20526;-71
2021/05/03 14:22:40;;;;;;;7.73;7.03;;;;;;;;;;3586361;39;20401;-72
2021/05/03 14:25:07;;;;;;;8.23;7.50;;;;;;;;;;3586066;39;20408;-71
2021/05/03 14:27:35;;;;;;;7.47;6.03;;;;;;;;;;3585099;39;20771;-71
2021/05/03 14:30:09;;;;;;;9.53;7.50;;;;;;;;;;3573104;39;20801;-71
2021/05/03 14:32:41;;;;;;;11.43;8.10;;;;;;;;;;3571297;39;20412;-71
2021/05/03 14:35:11;;;;;;;8.87;8.07;;;;;;;;;;3575176;39;20425;-71
2021/05/03 14:37:37;;;;;;;8.00;7.20;;;;;;;;;;3585091;39;20947;-71
2021/05/03 14:40:03;;;;;;;8.47;7.73;;;;;;;;;;3584805;39;20425;-71
2021/05/03 14:42:29;;;;;;;7.83;7.10;;;;;;;;;;3587038;39;20387;-71
2021/05/03 14:44:56;;;;;;;10.20;7.50;;;;;;;;;;3574106;39;20404;-71
2021/05/03 14:47:27;;;;;;;8.50;7.70;;;;;;;;;;3578572;39;20544;-71
2021/05/03 14:52:34;;;;;;;7.90;6.33;;;;;;;;;;3574587;39;20487;-71
2021/05/03 14:55:00;;;;;;;8.13;7.23;;;;;;;;;;3582674;39;20408;-71
2021/05/03 14:57:26;;;;;;;7.43;6.70;;;;;;;;;;3585009;39;20749;-72
2021/05/03 14:59:52;;;;;;;9.10;7.57;;;;;;;;;;3583151;39;20710;-71
2021/05/03 15:02:18;;;;;;;7.53;6.63;;;;;;;;;;3583976;39;20455;-71
2021/05/03 15:04:44;;;;;;;9.50;8.47;;;;;;;;;;3581342;39;20518;-71
2021/05/03 15:07:13;;;;;;;7.20;6.60;;;;;;;;;;3581058;40;20412;-71
2021/05/03 15:09:41;;;;;;;10.47;7.37;;;;;;;;;;3581595;39;20435;-72
2021/05/03 15:12:19;;;;;;;9.93;6.70;;;;;;;;;;3575710;40;20396;-71
2021/05/03 15:22:56;;;;;;;10.70;7.50;;;;;;;;;;3562060;39;20842;-71
2021/05/03 15:25:22;;;;;;;6.87;6.00;;;;;;;;;;3579714;40;20401;-71
2021/05/03 15:33:34;;;;;;;9.00;6.10;;;;;;;;;;3546715;40;20481;-71
2021/05/03 15:36:00;;;;;;;7.30;6.07;;;;;;;;;;3554085;40;20395;-71
2021/05/03 15:38:26;;;;;;;9.10;5.40;;;;;;;;;;3550604;40;20405;-72
2021/05/03 15:40:52;;;;;;;7.20;6.50;;;;;;;;;;3555696;40;20422;-72
2021/05/03 15:43:19;;;;;;;6.70;6.10;;;;;;;;;;3554061;40;20430;-72